sensor_id;sensor_type;location;lat;lon;timestamp;P1;durP1;ratioP1;P2;durP2;ratioP2
49530;SDS011;38889;30.622;104.088;2022-07-29T00:01:50;17.98;;;13.80;;
49530;SDS011;38889;30.622;104.088;2022-07-29T00:04:18;19.92;;;14.55;;
49530;SDS011;38889;30.622;104.088;2022-07-29T00:06:53;19.77;;;13.38;;
49530;SDS011;38889;30.622;104.088;2022-07-29T00:09:20;23.50;;;13.88;;
49530;SDS011;38889;30.622;104.088;2022-07-29T00:11:48;21.42;;;14.25;;
49530;SDS011;38889;30.622;104.088;2022-07-29T00:14:16;18.95;;;13.50;;
49530;SDS011;38889;30.622;104.088;2022-07-29T00:16:43;16.88;;;13.90;;
49530;SDS011;38889;30.622;104.088;2022-07-29T00:19:10;18.85;;;13.82;;
49530;SDS011;38889;30.622;104.088;2022-07-29T00:21:37;19.30;;;13.75;;
49530;SDS011;38889;30.622;104.088;2022-07-29T00:24:04;18.02;;;14.45;;
49530;SDS011;38889;30.622;104.088;2022-07-29T00:26:32;16.52;;;13.32;;
49530;SDS011;38889;30.622;104.088;2022-07-29T00:28:59;21.75;;;13.68;;
49530;SDS011;38889;30.622;104.088;2022-07-29T00:31:27;15.68;;;12.68;;
49530;SDS011;38889;30.622;104.088;2022-07-29T00:33:55;18.38;;;13.15;;
49530;SDS011;38889;30.622;104.088;2022-07-29T00:36:22;16.50;;;12.55;;
49530;SDS011;38889;30.622;104.088;2022-07-29T00:38:50;15.80;;;12.00;;
49530;SDS011;38889;30.622;104.088;2022-07-29T00:41:18;16.48;;;11.90;;
49530;SDS011;38889;30.622;104.088;2022-07-29T00:43:45;14.40;;;10.57;;
49530;SDS011;38889;30.622;104.088;2022-07-29T00:46:12;16.80;;;12.55;;
49530;SDS011;38889;30.622;104.088;2022-07-29T00:48:39;17.90;;;13.43;;
49530;SDS011;38889;30.622;104.088;2022-07-29T00:51:07;17.48;;;12.77;;
49530;SDS011;38889;30.622;104.088;2022-07-29T00:53:35;19.23;;;13.25;;
49530;SDS011;38889;30.622;104.088;2022-07-29T00:56:03;17.33;;;12.98;;
49530;SDS011;38889;30.622;104.088;2022-07-29T00:58:31;15.93;;;12.05;;
49530;SDS011;38889;30.622;104.088;2022-07-29T01:00:58;16.63;;;13.80;;
49530;SDS011;38889;30.622;104.088;2022-07-29T01:03:26;18.10;;;12.27;;
49530;SDS011;38889;30.622;104.088;2022-07-29T01:05:54;15.07;;;11.55;;
49530;SDS011;38889;30.622;104.088;2022-07-29T01:08:21;17.70;;;12.82;;
49530;SDS011;38889;30.622;104.088;2022-07-29T01:10:49;17.20;;;13.80;;
49530;SDS011;38889;30.622;104.088;2022-07-29T01:13:17;15.70;;;12.23;;
49530;SDS011;38889;30.622;104.088;2022-07-29T01:15:47;14.82;;;13.32;;
49530;SDS011;38889;30.622;104.088;2022-07-29T01:29:32;15.93;;;12.40;;
49530;SDS011;38889;30.622;104.088;2022-07-29T01:34:45;15.75;;;12.73;;
49530;SDS011;38889;30.622;104.088;2022-07-29T01:37:19;17.52;;;13.80;;
49530;SDS011;38889;30.622;104.088;2022-07-29T01:39:54;19.77;;;15.15;;
49530;SDS011;38889;30.622;104.088;2022-07-29T01:42:26;17.13;;;14.07;;
49530;SDS011;38889;30.622;104.088;2022-07-29T01:45:17;20.05;;;14.98;;
49530;SDS011;38889;30.622;104.088;2022-07-29T01:50:21;18.13;;;16.00;;
49530;SDS011;38889;30.622;104.088;2022-07-29T01:52:56;17.35;;;14.50;;
49530;SDS011;38889;30.622;104.088;2022-07-29T01:55:28;16.92;;;14.13;;
49530;SDS011;38889;30.622;104.088;2022-07-29T01:57:58;18.50;;;16.20;;
49530;SDS011;38889;30.622;104.088;2022-07-29T02:00:27;17.65;;;15.20;;
49530;SDS011;38889;30.622;104.088;2022-07-29T02:02:56;13.10;;;11.63;;
49530;SDS011;38889;30.622;104.088;2022-07-29T02:05:28;15.48;;;11.40;;
49530;SDS011;38889;30.622;104.088;2022-07-29T02:07:57;14.45;;;12.35;;
49530;SDS011;38889;30.622;104.088;2022-07-29T02:10:25;13.13;;;11.63;;
49530;SDS011;38889;30.622;104.088;2022-07-29T02:12:56;15.15;;;12.45;;
49530;SDS011;38889;30.622;104.088;2022-07-29T02:15:24;14.00;;;12.43;;
49530;SDS011;38889;30.622;104.088;2022-07-29T02:17:55;17.00;;;12.60;;
49530;SDS011;38889;30.622;104.088;2022-07-29T02:20:32;12.48;;;11.18;;
49530;SDS011;38889;30.622;104.088;2022-07-29T02:23:00;12.48;;;10.13;;
49530;SDS011;38889;30.622;104.088;2022-07-29T02:25:28;11.50;;;10.27;;
49530;SDS011;38889;30.622;104.088;2022-07-29T02:27:56;13.98;;;9.60;;
49530;SDS011;38889;30.622;104.088;2022-07-29T02:30:26;11.52;;;9.57;;
49530;SDS011;38889;30.622;104.088;2022-07-29T02:32:55;10.32;;;8.88;;
49530;SDS011;38889;30.622;104.088;2022-07-29T02:35:23;10.45;;;9.15;;
49530;SDS011;38889;30.622;104.088;2022-07-29T02:37:51;10.55;;;8.93;;
49530;SDS011;38889;30.622;104.088;2022-07-29T02:40:38;9.32;;;8.32;;
49530;SDS011;38889;30.622;104.088;2022-07-29T02:43:08;11.60;;;9.35;;
49530;SDS011;38889;30.622;104.088;2022-07-29T02:45:36;11.27;;;9.38;;
49530;SDS011;38889;30.622;104.088;2022-07-29T02:48:10;10.35;;;9.20;;
49530;SDS011;38889;30.622;104.088;2022-07-29T02:53:16;10.70;;;8.93;;
49530;SDS011;38889;30.622;104.088;2022-07-29T02:55:51;10.82;;;9.13;;
49530;SDS011;38889;30.622;104.088;2022-07-29T02:58:27;10.77;;;8.93;;
49530;SDS011;38889;30.622;104.088;2022-07-29T03:00:57;9.98;;;8.98;;
49530;SDS011;38889;30.622;104.088;2022-07-29T03:03:29;9.27;;;8.15;;
49530;SDS011;38889;30.622;104.088;2022-07-29T03:06:03;9.52;;;8.52;;
49530;SDS011;38889;30.622;104.088;2022-07-29T03:08:32;9.57;;;8.50;;
49530;SDS011;38889;30.622;104.088;2022-07-29T03:11:00;9.43;;;8.00;;
49530;SDS011;38889;30.622;104.088;2022-07-29T03:13:29;10.15;;;8.55;;
49530;SDS011;38889;30.622;104.088;2022-07-29T03:16:06;10.15;;;9.05;;
49530;SDS011;38889;30.622;104.088;2022-07-29T03:18:35;9.15;;;8.07;;
49530;SDS011;38889;30.622;104.088;2022-07-29T03:21:03;10.02;;;8.27;;
49530;SDS011;38889;30.622;104.088;2022-07-29T03:23:32;12.52;;;8.27;;
49530;SDS011;38889;30.622;104.088;2022-07-29T03:25:59;12.65;;;8.48;;
49530;SDS011;38889;30.622;104.088;2022-07-29T03:28:26;11.85;;;8.85;;
49530;SDS011;38889;30.622;104.088;2022-07-29T03:30:54;11.55;;;8.25;;
49530;SDS011;38889;30.622;104.088;2022-07-29T03:33:20;10.02;;;8.25;;
49530;SDS011;38889;30.622;104.088;2022-07-29T03:35:48;10.48;;;8.32;;
49530;SDS011;38889;30.622;104.088;2022-07-29T03:38:15;11.40;;;8.57;;
49530;SDS011;38889;30.622;104.088;2022-07-29T03:40:56;10.55;;;8.02;;
49530;SDS011;38889;30.622;104.088;2022-07-29T03:43:27;8.93;;;7.78;;
49530;SDS011;38889;30.622;104.088;2022-07-29T03:45:58;11.25;;;8.23;;
49530;SDS011;38889;30.622;104.088;2022-07-29T03:48:28;9.90;;;8.57;;
49530;SDS011;38889;30.622;104.088;2022-07-29T03:50:58;11.20;;;9.18;;
49530;SDS011;38889;30.622;104.088;2022-07-29T03:53:26;12.02;;;9.15;;
49530;SDS011;38889;30.622;104.088;2022-07-29T03:55:54;10.70;;;9.07;;
49530;SDS011;38889;30.622;104.088;2022-07-29T03:58:26;11.55;;;8.85;;
49530;SDS011;38889;30.622;104.088;2022-07-29T04:00:54;10.65;;;8.90;;
49530;SDS011;38889;30.622;104.088;2022-07-29T04:03:21;12.23;;;9.52;;
49530;SDS011;38889;30.622;104.088;2022-07-29T04:06:02;11.25;;;9.10;;
49530;SDS011;38889;30.622;104.088;2022-07-29T04:08:34;11.50;;;9.00;;
49530;SDS011;38889;30.622;104.088;2022-07-29T04:11:01;12.77;;;9.90;;
49530;SDS011;38889;30.622;104.088;2022-07-29T04:13:30;16.58;;;11.75;;
49530;SDS011;38889;30.622;104.088;2022-07-29T04:15:58;17.35;;;13.10;;
49530;SDS011;38889;30.622;104.088;2022-07-29T04:18:25;20.52;;;14.48;;
49530;SDS011;38889;30.622;104.088;2022-07-29T04:20:52;22.75;;;14.50;;
49530;SDS011;38889;30.622;104.088;2022-07-29T04:23:20;21.73;;;14.95;;
49530;SDS011;38889;30.622;104.088;2022-07-29T04:25:47;19.42;;;14.05;;
49530;SDS011;38889;30.622;104.088;2022-07-29T04:28:14;21.20;;;15.38;;
49530;SDS011;38889;30.622;104.088;2022-07-29T04:30:41;17.83;;;14.18;;
49530;SDS011;38889;30.622;104.088;2022-07-29T04:33:08;19.27;;;14.02;;
49530;SDS011;38889;30.622;104.088;2022-07-29T04:35:36;17.20;;;13.70;;
49530;SDS011;38889;30.622;104.088;2022-07-29T04:38:04;19.58;;;14.07;;
49530;SDS011;38889;30.622;104.088;2022-07-29T04:40:33;19.13;;;13.40;;
49530;SDS011;38889;30.622;104.088;2022-07-29T04:43:00;18.85;;;13.25;;
49530;SDS011;38889;30.622;104.088;2022-07-29T04:45:28;16.58;;;12.70;;
49530;SDS011;38889;30.622;104.088;2022-07-29T04:47:55;18.60;;;12.95;;
49530;SDS011;38889;30.622;104.088;2022-07-29T04:50:22;14.57;;;11.35;;
49530;SDS011;38889;30.622;104.088;2022-07-29T04:52:49;13.15;;;10.88;;
49530;SDS011;38889;30.622;104.088;2022-07-29T04:55:17;13.48;;;10.88;;
49530;SDS011;38889;30.622;104.088;2022-07-29T04:57:44;12.27;;;9.90;;
49530;SDS011;38889;30.622;104.088;2022-07-29T05:00:11;11.82;;;9.40;;
49530;SDS011;38889;30.622;104.088;2022-07-29T05:02:39;12.02;;;9.15;;
49530;SDS011;38889;30.622;104.088;2022-07-29T05:05:07;14.00;;;10.13;;
49530;SDS011;38889;30.622;104.088;2022-07-29T05:07:34;11.75;;;9.23;;
49530;SDS011;38889;30.622;104.088;2022-07-29T05:10:02;13.55;;;10.27;;
49530;SDS011;38889;30.622;104.088;2022-07-29T05:12:29;13.40;;;9.82;;
49530;SDS011;38889;30.622;104.088;2022-07-29T05:14:57;14.15;;;9.95;;
49530;SDS011;38889;30.622;104.088;2022-07-29T05:17:24;12.45;;;9.68;;
49530;SDS011;38889;30.622;104.088;2022-07-29T05:19:51;11.77;;;9.70;;
49530;SDS011;38889;30.622;104.088;2022-07-29T05:22:18;12.68;;;9.40;;
49530;SDS011;38889;30.622;104.088;2022-07-29T05:24:55;11.23;;;9.18;;
49530;SDS011;38889;30.622;104.088;2022-07-29T05:27:22;10.63;;;9.45;;
49530;SDS011;38889;30.622;104.088;2022-07-29T05:29:50;10.75;;;9.10;;
49530;SDS011;38889;30.622;104.088;2022-07-29T05:32:33;10.13;;;8.30;;
49530;SDS011;38889;30.622;104.088;2022-07-29T05:35:00;10.70;;;8.65;;
49530;SDS011;38889;30.622;104.088;2022-07-29T05:37:28;9.77;;;8.60;;
49530;SDS011;38889;30.622;104.088;2022-07-29T05:39:55;10.63;;;8.70;;
49530;SDS011;38889;30.622;104.088;2022-07-29T05:42:25;9.23;;;7.80;;
49530;SDS011;38889;30.622;104.088;2022-07-29T05:44:52;9.45;;;8.23;;
49530;SDS011;38889;30.622;104.088;2022-07-29T05:47:20;9.95;;;7.97;;
49530;SDS011;38889;30.622;104.088;2022-07-29T05:49:47;8.77;;;7.68;;
49530;SDS011;38889;30.622;104.088;2022-07-29T05:52:16;9.18;;;8.00;;
49530;SDS011;38889;30.622;104.088;2022-07-29T05:54:43;10.48;;;8.13;;
49530;SDS011;38889;30.622;104.088;2022-07-29T05:57:21;9.10;;;8.18;;
49530;SDS011;38889;30.622;104.088;2022-07-29T05:59:50;8.38;;;7.15;;
49530;SDS011;38889;30.622;104.088;2022-07-29T06:02:17;8.52;;;7.20;;
49530;SDS011;38889;30.622;104.088;2022-07-29T06:04:45;8.43;;;7.40;;
49530;SDS011;38889;30.622;104.088;2022-07-29T06:07:13;9.35;;;7.63;;
49530;SDS011;38889;30.622;104.088;2022-07-29T06:09:40;8.77;;;7.70;;
49530;SDS011;38889;30.622;104.088;2022-07-29T06:12:08;8.85;;;7.63;;
49530;SDS011;38889;30.622;104.088;2022-07-29T06:14:39;9.27;;;7.80;;
49530;SDS011;38889;30.622;104.088;2022-07-29T06:17:06;13.95;;;7.82;;
49530;SDS011;38889;30.622;104.088;2022-07-29T06:19:36;8.30;;;7.15;;
49530;SDS011;38889;30.622;104.088;2022-07-29T06:22:03;9.05;;;7.28;;
49530;SDS011;38889;30.622;104.088;2022-07-29T06:24:30;8.05;;;7.32;;
49530;SDS011;38889;30.622;104.088;2022-07-29T06:26:58;8.70;;;7.65;;
49530;SDS011;38889;30.622;104.088;2022-07-29T06:29:25;9.15;;;7.43;;
49530;SDS011;38889;30.622;104.088;2022-07-29T06:31:52;9.68;;;8.05;;
49530;SDS011;38889;30.622;104.088;2022-07-29T06:34:19;8.98;;;8.07;;
49530;SDS011;38889;30.622;104.088;2022-07-29T06:36:46;9.35;;;7.53;;
49530;SDS011;38889;30.622;104.088;2022-07-29T06:39:15;8.18;;;7.38;;
49530;SDS011;38889;30.622;104.088;2022-07-29T06:41:49;8.00;;;7.20;;
49530;SDS011;38889;30.622;104.088;2022-07-29T06:44:17;8.25;;;7.43;;
49530;SDS011;38889;30.622;104.088;2022-07-29T06:46:44;9.10;;;7.72;;
49530;SDS011;38889;30.622;104.088;2022-07-29T06:49:14;8.95;;;7.50;;
49530;SDS011;38889;30.622;104.088;2022-07-29T06:51:42;8.38;;;7.00;;
49530;SDS011;38889;30.622;104.088;2022-07-29T06:54:09;8.55;;;7.70;;
49530;SDS011;38889;30.622;104.088;2022-07-29T06:56:37;9.70;;;7.78;;
49530;SDS011;38889;30.622;104.088;2022-07-29T06:59:07;7.85;;;7.05;;
49530;SDS011;38889;30.622;104.088;2022-07-29T07:01:36;7.57;;;6.72;;
49530;SDS011;38889;30.622;104.088;2022-07-29T07:04:05;8.10;;;7.10;;
49530;SDS011;38889;30.622;104.088;2022-07-29T07:06:34;7.72;;;6.93;;
49530;SDS011;38889;30.622;104.088;2022-07-29T07:09:02;7.78;;;6.97;;
49530;SDS011;38889;30.622;104.088;2022-07-29T07:11:29;8.85;;;7.15;;
49530;SDS011;38889;30.622;104.088;2022-07-29T07:13:56;7.68;;;6.72;;
49530;SDS011;38889;30.622;104.088;2022-07-29T07:16:24;8.00;;;7.20;;
49530;SDS011;38889;30.622;104.088;2022-07-29T07:18:51;7.20;;;6.50;;
49530;SDS011;38889;30.622;104.088;2022-07-29T07:21:19;7.30;;;6.53;;
49530;SDS011;38889;30.622;104.088;2022-07-29T07:23:47;7.88;;;6.82;;
49530;SDS011;38889;30.622;104.088;2022-07-29T07:26:14;7.90;;;7.10;;
49530;SDS011;38889;30.622;104.088;2022-07-29T07:28:41;7.45;;;6.75;;
49530;SDS011;38889;30.622;104.088;2022-07-29T07:31:09;8.73;;;7.22;;
49530;SDS011;38889;30.622;104.088;2022-07-29T07:33:37;7.45;;;6.70;;
49530;SDS011;38889;30.622;104.088;2022-07-29T07:36:05;7.70;;;7.00;;
49530;SDS011;38889;30.622;104.088;2022-07-29T07:38:32;7.30;;;6.60;;
49530;SDS011;38889;30.622;104.088;2022-07-29T07:41:00;8.00;;;7.20;;
49530;SDS011;38889;30.622;104.088;2022-07-29T07:43:30;7.65;;;6.85;;
49530;SDS011;38889;30.622;104.088;2022-07-29T07:45:58;7.13;;;6.53;;
49530;SDS011;38889;30.622;104.088;2022-07-29T07:48:25;7.95;;;6.30;;
49530;SDS011;38889;30.622;104.088;2022-07-29T07:50:53;7.05;;;6.35;;
49530;SDS011;38889;30.622;104.088;2022-07-29T07:53:20;7.38;;;6.68;;
49530;SDS011;38889;30.622;104.088;2022-07-29T07:55:48;7.25;;;6.55;;
49530;SDS011;38889;30.622;104.088;2022-07-29T07:58:15;7.07;;;6.38;;
49530;SDS011;38889;30.622;104.088;2022-07-29T08:00:42;7.28;;;6.57;;
49530;SDS011;38889;30.622;104.088;2022-07-29T08:03:13;7.15;;;6.50;;
49530;SDS011;38889;30.622;104.088;2022-07-29T08:05:40;6.95;;;6.25;;
49530;SDS011;38889;30.622;104.088;2022-07-29T08:08:08;6.82;;;6.15;;
49530;SDS011;38889;30.622;104.088;2022-07-29T08:10:35;7.88;;;7.18;;
49530;SDS011;38889;30.622;104.088;2022-07-29T08:13:21;6.78;;;6.10;;
49530;SDS011;38889;30.622;104.088;2022-07-29T08:15:51;7.28;;;6.63;;
49530;SDS011;38889;30.622;104.088;2022-07-29T08:18:29;7.30;;;6.60;;
49530;SDS011;38889;30.622;104.088;2022-07-29T08:20:57;7.47;;;6.72;;
49530;SDS011;38889;30.622;104.088;2022-07-29T08:23:26;7.55;;;6.85;;
49530;SDS011;38889;30.622;104.088;2022-07-29T08:26:00;7.15;;;6.45;;
49530;SDS011;38889;30.622;104.088;2022-07-29T08:28:28;7.13;;;6.43;;
49530;SDS011;38889;30.622;104.088;2022-07-29T08:30:55;7.65;;;6.85;;
49530;SDS011;38889;30.622;104.088;2022-07-29T08:33:23;7.70;;;6.82;;
49530;SDS011;38889;30.622;104.088;2022-07-29T08:35:54;7.50;;;6.70;;
49530;SDS011;38889;30.622;104.088;2022-07-29T08:38:21;7.13;;;6.43;;
49530;SDS011;38889;30.622;104.088;2022-07-29T08:40:49;7.10;;;6.40;;
49530;SDS011;38889;30.622;104.088;2022-07-29T08:43:17;7.10;;;6.43;;
49530;SDS011;38889;30.622;104.088;2022-07-29T08:45:46;6.72;;;6.13;;
49530;SDS011;38889;30.622;104.088;2022-07-29T08:48:20;7.65;;;6.82;;
49530;SDS011;38889;30.622;104.088;2022-07-29T08:50:52;7.40;;;6.70;;
49530;SDS011;38889;30.622;104.088;2022-07-29T08:53:37;7.65;;;6.95;;
49530;SDS011;38889;30.622;104.088;2022-07-29T08:56:12;7.93;;;7.03;;
49530;SDS011;38889;30.622;104.088;2022-07-29T08:58:42;8.15;;;7.35;;
49530;SDS011;38889;30.622;104.088;2022-07-29T09:01:10;7.70;;;7.00;;
49530;SDS011;38889;30.622;104.088;2022-07-29T09:03:39;7.80;;;7.00;;
49530;SDS011;38889;30.622;104.088;2022-07-29T09:06:07;7.53;;;6.82;;
49530;SDS011;38889;30.622;104.088;2022-07-29T09:08:35;7.65;;;6.90;;
49530;SDS011;38889;30.622;104.088;2022-07-29T09:11:02;7.78;;;7.05;;
49530;SDS011;38889;30.622;104.088;2022-07-29T09:13:30;7.80;;;7.10;;
49530;SDS011;38889;30.622;104.088;2022-07-29T09:15:57;8.13;;;7.32;;
49530;SDS011;38889;30.622;104.088;2022-07-29T09:18:35;7.95;;;7.25;;
49530;SDS011;38889;30.622;104.088;2022-07-29T09:21:07;7.93;;;7.22;;
49530;SDS011;38889;30.622;104.088;2022-07-29T09:26:44;8.23;;;7.43;;
49530;SDS011;38889;30.622;104.088;2022-07-29T09:29:20;8.07;;;7.35;;
49530;SDS011;38889;30.622;104.088;2022-07-29T09:31:51;8.13;;;7.43;;
49530;SDS011;38889;30.622;104.088;2022-07-29T09:36:52;8.35;;;7.55;;
49530;SDS011;38889;30.622;104.088;2022-07-29T09:39:28;8.40;;;7.18;;
49530;SDS011;38889;30.622;104.088;2022-07-29T09:41:59;8.43;;;7.72;;
49530;SDS011;38889;30.622;104.088;2022-07-29T09:44:42;8.18;;;7.47;;
49530;SDS011;38889;30.622;104.088;2022-07-29T09:47:15;8.43;;;7.63;;
49530;SDS011;38889;30.622;104.088;2022-07-29T09:49:56;8.15;;;7.38;;
49530;SDS011;38889;30.622;104.088;2022-07-29T09:52:28;8.55;;;7.75;;
49530;SDS011;38889;30.622;104.088;2022-07-29T09:55:06;7.93;;;7.22;;
49530;SDS011;38889;30.622;104.088;2022-07-29T09:57:34;7.78;;;7.07;;
49530;SDS011;38889;30.622;104.088;2022-07-29T10:02:37;8.13;;;7.43;;
49530;SDS011;38889;30.622;104.088;2022-07-29T10:05:06;8.20;;;7.50;;
49530;SDS011;38889;30.622;104.088;2022-07-29T10:10:17;9.10;;;8.30;;
49530;SDS011;38889;30.622;104.088;2022-07-29T10:12:53;8.98;;;8.07;;
49530;SDS011;38889;30.622;104.088;2022-07-29T10:15:23;9.93;;;8.93;;
49530;SDS011;38889;30.622;104.088;2022-07-29T10:17:55;10.02;;;9.02;;
49530;SDS011;38889;30.622;104.088;2022-07-29T10:20:23;10.70;;;9.57;;
49530;SDS011;38889;30.622;104.088;2022-07-29T10:22:52;11.02;;;9.93;;
49530;SDS011;38889;30.622;104.088;2022-07-29T10:25:19;10.35;;;9.35;;
49530;SDS011;38889;30.622;104.088;2022-07-29T10:27:48;10.60;;;9.50;;
49530;SDS011;38889;30.622;104.088;2022-07-29T10:30:19;11.57;;;10.38;;
49530;SDS011;38889;30.622;104.088;2022-07-29T10:38:44;12.07;;;10.77;;
49530;SDS011;38889;30.622;104.088;2022-07-29T10:41:38;12.20;;;10.90;;
49530;SDS011;38889;30.622;104.088;2022-07-29T10:44:17;12.52;;;11.20;;
49530;SDS011;38889;30.622;104.088;2022-07-29T10:46:48;11.18;;;9.82;;
49530;SDS011;38889;30.622;104.088;2022-07-29T10:49:17;11.82;;;10.63;;
49530;SDS011;38889;30.622;104.088;2022-07-29T10:57:12;11.70;;;10.40;;
49530;SDS011;38889;30.622;104.088;2022-07-29T10:59:43;11.88;;;10.55;;
49530;SDS011;38889;30.622;104.088;2022-07-29T11:05:02;11.85;;;10.65;;
49530;SDS011;38889;30.622;104.088;2022-07-29T11:07:31;11.52;;;10.32;;
49530;SDS011;38889;30.622;104.088;2022-07-29T11:15:16;11.30;;;10.05;;
49530;SDS011;38889;30.622;104.088;2022-07-29T11:20:38;11.52;;;10.23;;
49530;SDS011;38889;30.622;104.088;2022-07-29T11:26:18;11.88;;;9.95;;
49530;SDS011;38889;30.622;104.088;2022-07-29T11:31:42;11.70;;;9.90;;
49530;SDS011;38889;30.622;104.088;2022-07-29T11:44:56;11.32;;;10.13;;
49530;SDS011;38889;30.622;104.088;2022-07-29T11:47:33;10.63;;;9.52;;
49530;SDS011;38889;30.622;104.088;2022-07-29T11:50:02;10.70;;;9.63;;
49530;SDS011;38889;30.622;104.088;2022-07-29T11:55:11;10.25;;;9.23;;
49530;SDS011;38889;30.622;104.088;2022-07-29T12:00:21;10.32;;;9.32;;
49530;SDS011;38889;30.622;104.088;2022-07-29T12:02:50;11.02;;;9.85;;
49530;SDS011;38889;30.622;104.088;2022-07-29T12:05:18;9.77;;;8.80;;
49530;SDS011;38889;30.622;104.088;2022-07-29T12:07:46;10.85;;;9.85;;
49530;SDS011;38889;30.622;104.088;2022-07-29T12:10:14;10.85;;;9.70;;
49530;SDS011;38889;30.622;104.088;2022-07-29T12:12:41;11.07;;;10.07;;
49530;SDS011;38889;30.622;104.088;2022-07-29T12:15:17;10.63;;;9.52;;
49530;SDS011;38889;30.622;104.088;2022-07-29T12:17:49;10.30;;;9.30;;
49530;SDS011;38889;30.622;104.088;2022-07-29T12:20:28;10.70;;;9.70;;
49530;SDS011;38889;30.622;104.088;2022-07-29T12:22:56;10.65;;;9.65;;
49530;SDS011;38889;30.622;104.088;2022-07-29T12:25:23;10.63;;;9.63;;
49530;SDS011;38889;30.622;104.088;2022-07-29T12:28:02;10.38;;;9.38;;
49530;SDS011;38889;30.622;104.088;2022-07-29T12:30:38;10.57;;;9.57;;
49530;SDS011;38889;30.622;104.088;2022-07-29T12:33:15;10.20;;;9.20;;
49530;SDS011;38889;30.622;104.088;2022-07-29T12:35:54;10.98;;;9.88;;
49530;SDS011;38889;30.622;104.088;2022-07-29T12:38:28;10.85;;;9.85;;
49530;SDS011;38889;30.622;104.088;2022-07-29T12:40:55;10.80;;;9.70;;
49530;SDS011;38889;30.622;104.088;2022-07-29T12:43:23;10.80;;;9.65;;
49530;SDS011;38889;30.622;104.088;2022-07-29T12:45:55;10.75;;;9.50;;
49530;SDS011;38889;30.622;104.088;2022-07-29T12:48:33;10.93;;;9.88;;
49530;SDS011;38889;30.622;104.088;2022-07-29T12:51:04;10.80;;;9.75;;
49530;SDS011;38889;30.622;104.088;2022-07-29T12:53:33;10.80;;;9.60;;
49530;SDS011;38889;30.622;104.088;2022-07-29T12:56:02;10.73;;;9.75;;
49530;SDS011;38889;30.622;104.088;2022-07-29T13:06:28;10.35;;;9.10;;
49530;SDS011;38889;30.622;104.088;2022-07-29T13:09:02;10.35;;;9.45;;
49530;SDS011;38889;30.622;104.088;2022-07-29T13:11:38;11.77;;;9.60;;
49530;SDS011;38889;30.622;104.088;2022-07-29T13:14:10;11.35;;;9.80;;
49530;SDS011;38889;30.622;104.088;2022-07-29T13:19:33;10.18;;;9.18;;
49530;SDS011;38889;30.622;104.088;2022-07-29T13:22:03;10.15;;;9.15;;
49530;SDS011;38889;30.622;104.088;2022-07-29T13:24:31;11.25;;;9.25;;
49530;SDS011;38889;30.622;104.088;2022-07-29T13:26:59;10.68;;;9.57;;
49530;SDS011;38889;30.622;104.088;2022-07-29T13:29:26;11.30;;;9.40;;
49530;SDS011;38889;30.622;104.088;2022-07-29T13:31:53;10.13;;;9.02;;
49530;SDS011;38889;30.622;104.088;2022-07-29T13:34:20;9.73;;;8.43;;
49530;SDS011;38889;30.622;104.088;2022-07-29T13:36:49;9.13;;;8.32;;
49530;SDS011;38889;30.622;104.088;2022-07-29T13:39:25;10.00;;;9.05;;
49530;SDS011;38889;30.622;104.088;2022-07-29T13:41:53;9.77;;;8.80;;
49530;SDS011;38889;30.622;104.088;2022-07-29T13:44:20;10.25;;;9.13;;
49530;SDS011;38889;30.622;104.088;2022-07-29T13:46:47;9.38;;;8.40;;
49530;SDS011;38889;30.622;104.088;2022-07-29T13:49:15;10.32;;;9.32;;
49530;SDS011;38889;30.622;104.088;2022-07-29T13:51:42;9.63;;;8.63;;
49530;SDS011;38889;30.622;104.088;2022-07-29T13:54:10;10.52;;;8.57;;
49530;SDS011;38889;30.622;104.088;2022-07-29T13:56:37;9.05;;;8.15;;
49530;SDS011;38889;30.622;104.088;2022-07-29T13:59:04;9.65;;;8.38;;
49530;SDS011;38889;30.622;104.088;2022-07-29T14:01:34;9.20;;;8.30;;
49530;SDS011;38889;30.622;104.088;2022-07-29T14:04:01;9.80;;;8.80;;
49530;SDS011;38889;30.622;104.088;2022-07-29T14:06:29;8.65;;;7.85;;
49530;SDS011;38889;30.622;104.088;2022-07-29T14:08:56;8.80;;;8.00;;
49530;SDS011;38889;30.622;104.088;2022-07-29T14:11:23;9.88;;;8.88;;
49530;SDS011;38889;30.622;104.088;2022-07-29T14:13:51;9.40;;;8.40;;
49530;SDS011;38889;30.622;104.088;2022-07-29T14:16:18;10.55;;;8.07;;
49530;SDS011;38889;30.622;104.088;2022-07-29T14:18:46;8.70;;;7.80;;
49530;SDS011;38889;30.622;104.088;2022-07-29T14:21:13;9.52;;;8.07;;
49530;SDS011;38889;30.622;104.088;2022-07-29T14:23:43;8.50;;;7.70;;
49530;SDS011;38889;30.622;104.088;2022-07-29T14:26:11;8.25;;;7.45;;
49530;SDS011;38889;30.622;104.088;2022-07-29T14:28:38;8.75;;;7.82;;
49530;SDS011;38889;30.622;104.088;2022-07-29T14:31:06;8.63;;;7.68;;
49530;SDS011;38889;30.622;104.088;2022-07-29T14:33:33;8.50;;;7.70;;
49530;SDS011;38889;30.622;104.088;2022-07-29T14:36:02;9.07;;;7.32;;
49530;SDS011;38889;30.622;104.088;2022-07-29T14:38:30;8.80;;;8.00;;
49530;SDS011;38889;30.622;104.088;2022-07-29T14:40:57;9.35;;;8.45;;
49530;SDS011;38889;30.622;104.088;2022-07-29T14:43:24;8.23;;;7.43;;
49530;SDS011;38889;30.622;104.088;2022-07-29T14:45:52;8.52;;;7.30;;
49530;SDS011;38889;30.622;104.088;2022-07-29T14:48:19;8.30;;;7.50;;
49530;SDS011;38889;30.622;104.088;2022-07-29T14:50:46;8.88;;;7.88;;
49530;SDS011;38889;30.622;104.088;2022-07-29T14:53:13;7.72;;;7.03;;
49530;SDS011;38889;30.622;104.088;2022-07-29T14:55:40;8.27;;;7.50;;
49530;SDS011;38889;30.622;104.088;2022-07-29T14:58:08;7.97;;;7.25;;
49530;SDS011;38889;30.622;104.088;2022-07-29T15:03:27;7.63;;;6.90;;
49530;SDS011;38889;30.622;104.088;2022-07-29T15:05:56;8.30;;;7.47;;
49530;SDS011;38889;30.622;104.088;2022-07-29T15:08:24;7.82;;;7.03;;
49530;SDS011;38889;30.622;104.088;2022-07-29T15:10:53;7.40;;;6.70;;
49530;SDS011;38889;30.622;104.088;2022-07-29T15:13:23;8.85;;;7.35;;
49530;SDS011;38889;30.622;104.088;2022-07-29T15:15:50;7.63;;;6.85;;
49530;SDS011;38889;30.622;104.088;2022-07-29T15:18:17;7.88;;;7.07;;
49530;SDS011;38889;30.622;104.088;2022-07-29T15:20:47;8.45;;;7.60;;
49530;SDS011;38889;30.622;104.088;2022-07-29T15:23:19;7.68;;;6.97;;
49530;SDS011;38889;30.622;104.088;2022-07-29T15:25:49;7.68;;;6.85;;
49530;SDS011;38889;30.622;104.088;2022-07-29T15:28:16;7.43;;;6.75;;
49530;SDS011;38889;30.622;104.088;2022-07-29T15:30:43;7.30;;;6.60;;
49530;SDS011;38889;30.622;104.088;2022-07-29T15:33:10;7.47;;;6.78;;
49530;SDS011;38889;30.622;104.088;2022-07-29T15:35:38;7.38;;;6.60;;
49530;SDS011;38889;30.622;104.088;2022-07-29T15:38:05;7.88;;;7.10;;
49530;SDS011;38889;30.622;104.088;2022-07-29T15:40:33;7.65;;;6.90;;
49530;SDS011;38889;30.622;104.088;2022-07-29T15:43:06;7.90;;;6.72;;
49530;SDS011;38889;30.622;104.088;2022-07-29T15:45:37;7.72;;;7.03;;
49530;SDS011;38889;30.622;104.088;2022-07-29T15:48:05;7.88;;;7.18;;
49530;SDS011;38889;30.622;104.088;2022-07-29T15:50:34;7.65;;;6.95;;
49530;SDS011;38889;30.622;104.088;2022-07-29T15:53:01;7.82;;;7.03;;